Hansa Flensburg — A8AL3 — position and weather

sailwx.info

Track history (hours):
 
Tides and Currents Weather Stations Pressure Air Temp Water Temp Dewpoint Dewpoint Depression Visibility Wind Speed Wind Dir Waves Ship Positions

Hansa Flensburg

Last reported at 2018-Jul-23 16:56 UTC. Time now 2018-Jul-23 17:21 UTC.
Position N 31°19' W 010°50'.

Length 175 m; beam 27 m; draft 10 m.

Type: Ship (hazmat cat A). MMSI: 636090566.

Date/timePositionNaut miles runAvg speedWind from/ knotsBaromVisibWave heightAir tempDewpointWater temp
2018-Jul-23 16:56N 31°19' W 010°50'511.5
2018-Jul-23 16:29N 31°24' W 010°48'611.5
2018-Jul-23 16:00N 31°29' W 010°45'26812.4
2018-Jul-22 18:19N 34°54' W 007°19'9311.9
2018-Jul-22 10:31N 35°57' W 005°54'311.1
2018-Jul-22 10:15N 35°57' W 005°51'711.0
2018-Jul-22 09:35N 35°57' W 005°41'111.9
2018-Jul-22 09:28N 35°57' W 005°40'511.7
2018-Jul-22 09:00N 35°58' W 005°33'5 9.9
2018-Jul-22 08:30N 36°00' W 005°28'5 9.3
2018-Jul-22 08:00N 36°04' W 005°24'5 9.4
2018-Jul-22 07:30N 36°08' W 005°25'1 2.5
2018-Jul-22 06:59N 36°08' W 005°26'0 0.0
2018-Jul-22 06:29N 36°08' W 005°26'0 0.0
2018-Jul-22 05:59N 36°08' W 005°26'0 0.0
2018-Jul-22 05:29N 36°08' W 005°26'0 0.0
2018-Jul-22 04:53N 36°08' W 005°26'0 0.0
2018-Jul-22 04:29N 36°08' W 005°26'0 0.0
2018-Jul-22 03:59N 36°08' W 005°26'0 0.0
2018-Jul-22 03:23N 36°08' W 005°26'0 0.0
2018-Jul-22 02:59N 36°08' W 005°26'0 0.0
2018-Jul-22 02:29N 36°08' W 005°26'0 0.0
2018-Jul-22 01:56N 36°08' W 005°26'0 0.0
2018-Jul-22 01:29N 36°08' W 005°26'0 0.0
2018-Jul-22 00:53N 36°08' W 005°26'0 0.0
2018-Jul-22 00:29N 36°08' W 005°26'0 0.0
2018-Jul-21 23:59N 36°08' W 005°26'0 0.8
2018-Jul-21 23:30N 36°09' W 005°26'4 7.3
2018-Jul-21 23:00N 36°06' W 005°23'4 7.3
2018-Jul-21 22:30N 36°04' W 005°19'4 9.0
2018-Jul-21 22:00N 36°04' W 005°14'510.9
2018-Jul-21 21:30N 36°05' W 005°07'510.6
2018-Jul-21 21:00N 36°07' W 005°01'611.8
2018-Jul-21 20:30N 36°11' W 004°56'1 0.5
2018-Jul-21 18:20N 36°12' W 004°57'1 2.6
2018-Jul-21 17:59N 36°11' W 004°57'7 1.5
2018-Jul-21 13:12N 36°06' W 005°03'1 2.6
2018-Jul-21 12:58N 36°06' W 005°04'1 2.4
2018-Jul-21 12:30N 36°05' W 005°05'4 6.6
2018-Jul-21 11:56N 36°03' W 005°08'613.0
2018-Jul-21 11:30N 36°02' W 005°15'713.4
2018-Jul-21 11:01N 35°59' W 005°22'611.1
2018-Jul-21 10:31N 35°56' W 005°28'3 0.3
2018-Jul-21 00:44N 35°54' W 005°30'1 5.2
2018-Jul-21 00:30N 35°55' W 005°29'3 3.6
2018-Jul-20 23:48N 35°54' W 005°32'1 0.7
2018-Jul-20 22:55N 35°54' W 005°32'2 1.0
2018-Jul-20 20:29N 35°53' W 005°33'0 0.0
2018-Jul-20 19:59N 35°53' W 005°33'0 0.0
2018-Jul-20 19:29N 35°53' W 005°33'0 0.0
2018-Jul-20 18:59N 35°53' W 005°33'11 0.4
2018-Jul-19 18:08N 36°01' W 005°26'310.7
2018-Jul-19 17:52N 36°04' W 005°24'5 0.1
2018-Jul-18 05:44N 36°08' W 005°25'0 0.1
2018-Jul-18 05:23N 36°08' W 005°25'0 0.1
2018-Jul-18 04:59N 36°08' W 005°25'0 0.1
2018-Jul-18 04:23N 36°08' W 005°25'0 0.1
2018-Jul-18 03:59N 36°08' W 005°25'0 0.0
2018-Jul-18 03:23N 36°08' W 005°25'0 0.1
2018-Jul-18 02:59N 36°08' W 005°25'0 0.1
2018-Jul-18 02:29N 36°08' W 005°25'0 0.0
2018-Jul-18 01:59N 36°08' W 005°25'0 0.0
2018-Jul-18 01:29N 36°08' W 005°25'0 0.1
2018-Jul-18 00:59N 36°08' W 005°25'0 0.0
2018-Jul-18 00:23N 36°08' W 005°25'0 0.1
2018-Jul-17 23:59N 36°08' W 005°25'0 0.0
2018-Jul-17 23:29N 36°08' W 005°25'0 0.2
2018-Jul-17 22:56N 36°08' W 005°25'0 0.0
2018-Jul-17 22:29N 36°08' W 005°25'0 0.1
2018-Jul-17 21:59N 36°08' W 005°25'0 0.0
2018-Jul-17 21:29N 36°08' W 005°25'0 0.3
2018-Jul-17 20:56N 36°08' W 005°25'0 0.1
2018-Jul-17 20:29N 36°08' W 005°25'0 0.0
2018-Jul-17 19:59N 36°08' W 005°25'0 0.0
2018-Jul-17 19:23N 36°08' W 005°25'0 0.0
2018-Jul-17 18:59N 36°08' W 005°25'0 0.0
2018-Jul-17 18:26N 36°08' W 005°25'0 0.1
2018-Jul-17 17:59N 36°08' W 005°25'0 0.0
2018-Jul-17 17:29N 36°08' W 005°25'0 0.1
2018-Jul-17 16:56N 36°08' W 005°25'0 0.2
2018-Jul-17 16:26N 36°08' W 005°25'0 0.2
2018-Jul-17 15:56N 36°08' W 005°25'0 0.2
2018-Jul-17 15:23N 36°08' W 005°25'0 0.0
2018-Jul-17 14:59N 36°08' W 005°25'0 0.0
2018-Jul-17 14:29N 36°08' W 005°25'0 0.1
2018-Jul-17 13:59N 36°08' W 005°25'0 0.0
2018-Jul-17 13:29N 36°08' W 005°25'0 0.1
2018-Jul-17 12:56N 36°08' W 005°25'0 0.1
2018-Jul-17 12:29N 36°08' W 005°25'0 0.0
2018-Jul-17 11:59N 36°08' W 005°25'0 0.0
2018-Jul-17 11:29N 36°08' W 005°25'0 0.0
2018-Jul-17 10:29N 36°08' W 005°25'0 0.1
2018-Jul-17 09:59N 36°08' W 005°25'0 0.1
2018-Jul-17 09:23N 36°08' W 005°25'0 0.2
2018-Jul-17 08:59N 36°08' W 005°25'0 0.3
2018-Jul-17 08:26N 36°08' W 005°25'0 0.0
2018-Jul-17 06:56N 36°08' W 005°25'0 0.0
2018-Jul-17 06:29N 36°08' W 005°25'0 0.1
2018-Jul-17 05:44N 36°08' W 005°25'0 0.4
2018-Jul-17 05:29N 36°08' W 005°24'0 0.1
2018-Jul-17 04:47N 36°08' W 005°25'0 0.1
2018-Jul-17 04:23N 36°08' W 005°25'0 0.1
2018-Jul-17 03:56N 36°08' W 005°25'0 0.1
2018-Jul-17 03:29N 36°08' W 005°25'0 0.1
2018-Jul-17 02:58N 36°08' W 005°25'0 0.1
2018-Jul-17 02:28N 36°08' W 005°25'0 0.0
2018-Jul-17 01:55N 36°08' W 005°25'0 0.0
2018-Jul-17 01:28N 36°08' W 005°25'0 0.2
2018-Jul-17 00:58N 36°08' W 005°25'0 0.1
2018-Jul-17 00:25N 36°08' W 005°25'0 0.0
2018-Jul-16 23:25N 36°08' W 005°25'0 0.0
2018-Jul-16 22:55N 36°08' W 005°25'0 0.0
2018-Jul-16 22:16N 36°08' W 005°25'0 0.2
2018-Jul-16 21:58N 36°08' W 005°24'0 0.1
2018-Jul-16 21:28N 36°08' W 005°24'0 0.1
2018-Jul-16 20:58N 36°08' W 005°25'0 0.0
2018-Jul-16 20:28N 36°08' W 005°25'0 0.0
2018-Jul-16 19:55N 36°08' W 005°25'0 0.0
2018-Jul-16 19:25N 36°08' W 005°25'0 0.0
2018-Jul-16 18:55N 36°08' W 005°25'0 0.0
2018-Jul-16 18:28N 36°08' W 005°25'0 0.0
2018-Jul-16 17:58N 36°08' W 005°25'0 0.0
2018-Jul-16 17:28N 36°08' W 005°25'0 0.0
2018-Jul-16 16:58N 36°08' W 005°25'0 0.2
2018-Jul-16 16:28N 36°08' W 005°25'0 0.2
2018-Jul-16 15:55N 36°08' W 005°24'0 0.1
2018-Jul-16 15:25N 36°08' W 005°24'0 0.1
2018-Jul-16 14:55N 36°08' W 005°25'0 0.0
2018-Jul-16 13:58N 36°08' W 005°25'0 0.0
2018-Jul-16 13:10N 36°08' W 005°25'0 0.0
2018-Jul-16 12:58N 36°08' W 005°25'0 0.0
2018-Jul-16 12:01N 36°08' W 005°25'0 0.0
2018-Jul-16 11:43N 36°08' W 005°25'0 0.1
2018-Jul-16 11:25N 36°08' W 005°25'0 0.0
2018-Jul-16 10:58N 36°08' W 005°25'0 0.1
2018-Jul-16 09:25N 36°08' W 005°24'0 0.1
2018-Jul-16 08:19N 36°08' W 005°25'0 0.1
2018-Jul-16 07:58N 36°08' W 005°25'0 0.1
2018-Jul-16 07:28N 36°08' W 005°25'0 0.0
2018-Jul-16 06:55N 36°08' W 005°24'0 0.1
2018-Jul-16 06:28N 36°08' W 005°25'0 0.1
2018-Jul-16 05:58N 36°08' W 005°25'0 0.0
2018-Jul-16 05:25N 36°08' W 005°25'0 0.2
2018-Jul-16 04:19N 36°08' W 005°24'0 0.1
2018-Jul-16 03:55N 36°08' W 005°24'0 0.1
2018-Jul-16 03:25N 36°08' W 005°24'0 0.1
2018-Jul-16 02:55N 36°08' W 005°24'0 0.2
2018-Jul-16 02:25N 36°08' W 005°25'0 0.1
2018-Jul-16 01:58N 36°08' W 005°25'0 0.0
2018-Jul-16 01:28N 36°08' W 005°25'0 0.0
2018-Jul-16 00:55N 36°08' W 005°25'0 0.1
2018-Jul-16 00:25N 36°08' W 005°25'0 0.1
2018-Jul-15 23:58N 36°08' W 005°24'0 0.1
2018-Jul-15 23:25N 36°08' W 005°25'0 0.0
2018-Jul-15 22:58N 36°08' W 005°25'0 0.0
2018-Jul-15 21:46N 36°08' W 005°24'0 0.0
2018-Jul-15 21:28N 36°08' W 005°24'0 0.1
2018-Jul-15 20:55N 36°08' W 005°24'0 0.0
2018-Jul-15 17:07N 36°08' W 005°24'0 0.2
2018-Jul-15 16:58N 36°08' W 005°24'0 0.2
2018-Jul-15 16:28N 36°08' W 005°25'0 0.1
2018-Jul-15 15:58N 36°08' W 005°25'0 0.1
2018-Jul-15 15:28N 36°08' W 005°25'0 0.1
2018-Jul-15 13:28N 36°08' W 005°24'0 0.1
2018-Jul-15 12:58N 36°08' W 005°24'0 0.0
2018-Jul-15 12:25N 36°08' W 005°24'0 0.0
2018-Jul-15 11:58N 36°08' W 005°24'0 0.0
2018-Jul-15 10:01N 36°08' W 005°24'0 0.0
2018-Jul-15 09:37N 36°08' W 005°24'0 0.1
2018-Jul-15 09:22N 36°08' W 005°24'0 0.0
2018-Jul-15 08:55N 36°08' W 005°24'0 0.1
2018-Jul-15 08:25N 36°08' W 005°25'0 0.1
2018-Jul-15 07:55N 36°08' W 005°25'0 0.3
2018-Jul-15 07:30N 36°08' W 005°25'1 2.5
2018-Jul-15 07:01N 36°07' W 005°24'3 6.2
2018-Jul-15 06:27N 36°05' W 005°21'3 6.7
2018-Jul-15 06:00N 36°04' W 005°17'3 6.8
2018-Jul-15 05:30N 36°01' W 005°20'4 7.8
2018-Jul-15 05:01N 35°58' W 005°23'611.8
2018-Jul-15 04:30N 35°56' W 005°30'1512.2
2018-Jul-15 03:15N 35°55' W 005°49'512.1
2018-Jul-15 02:49N 35°54' W 005°55'  
Track history (hours):
 
Tides and Currents Weather Stations Pressure Air Temp Water Temp Dewpoint Dewpoint Depression Visibility Wind Speed Wind Dir Waves Ship Positions

Hansa Flensburg

Last reported at 2018-Jul-23 16:56 UTC. Time now 2018-Jul-23 17:21 UTC.
Position N 31°19' W 010°50'.

Length 175 m; beam 27 m; draft 10 m.

Type: Ship (hazmat cat A). MMSI: 636090566.

Date/timePositionNaut miles runAvg speedWind from/ knotsBaromVisibWave heightAir tempDewpointWater temp
2018-Jul-23 16:56N 31°19' W 010°50'511.5
2018-Jul-23 16:29N 31°24' W 010°48'611.5
2018-Jul-23 16:00N 31°29' W 010°45'26812.4
2018-Jul-22 18:19N 34°54' W 007°19'9311.9
2018-Jul-22 10:31N 35°57' W 005°54'311.1
2018-Jul-22 10:15N 35°57' W 005°51'711.0
2018-Jul-22 09:35N 35°57' W 005°41'111.9
2018-Jul-22 09:28N 35°57' W 005°40'511.7
2018-Jul-22 09:00N 35°58' W 005°33'5 9.9
2018-Jul-22 08:30N 36°00' W 005°28'5 9.3
2018-Jul-22 08:00N 36°04' W 005°24'5 9.4
2018-Jul-22 07:30N 36°08' W 005°25'1 2.5
2018-Jul-22 06:59N 36°08' W 005°26'0 0.0
2018-Jul-22 06:29N 36°08' W 005°26'0 0.0
2018-Jul-22 05:59N 36°08' W 005°26'0 0.0
2018-Jul-22 05:29N 36°08' W 005°26'0 0.0
2018-Jul-22 04:53N 36°08' W 005°26'0 0.0
2018-Jul-22 04:29N 36°08' W 005°26'0 0.0
2018-Jul-22 03:59N 36°08' W 005°26'0 0.0
2018-Jul-22 03:23N 36°08' W 005°26'0 0.0
2018-Jul-22 02:59N 36°08' W 005°26'0 0.0
2018-Jul-22 02:29N 36°08' W 005°26'0 0.0
2018-Jul-22 01:56N 36°08' W 005°26'0 0.0
2018-Jul-22 01:29N 36°08' W 005°26'0 0.0
2018-Jul-22 00:53N 36°08' W 005°26'0 0.0
2018-Jul-22 00:29N 36°08' W 005°26'0 0.0
2018-Jul-21 23:59N 36°08' W 005°26'0 0.8
2018-Jul-21 23:30N 36°09' W 005°26'4 7.3
2018-Jul-21 23:00N 36°06' W 005°23'4 7.3
2018-Jul-21 22:30N 36°04' W 005°19'4 9.0
2018-Jul-21 22:00N 36°04' W 005°14'510.9
2018-Jul-21 21:30N 36°05' W 005°07'510.6
2018-Jul-21 21:00N 36°07' W 005°01'611.8
2018-Jul-21 20:30N 36°11' W 004°56'1 0.5
2018-Jul-21 18:20N 36°12' W 004°57'1 2.6
2018-Jul-21 17:59N 36°11' W 004°57'7 1.5
2018-Jul-21 13:12N 36°06' W 005°03'1 2.6
2018-Jul-21 12:58N 36°06' W 005°04'1 2.4
2018-Jul-21 12:30N 36°05' W 005°05'4 6.6
2018-Jul-21 11:56N 36°03' W 005°08'613.0
2018-Jul-21 11:30N 36°02' W 005°15'713.4
2018-Jul-21 11:01N 35°59' W 005°22'611.1
2018-Jul-21 10:31N 35°56' W 005°28'3 0.3
2018-Jul-21 00:44N 35°54' W 005°30'1 5.2
2018-Jul-21 00:30N 35°55' W 005°29'3 3.6
2018-Jul-20 23:48N 35°54' W 005°32'1 0.7
2018-Jul-20 22:55N 35°54' W 005°32'2 1.0
2018-Jul-20 20:29N 35°53' W 005°33'0 0.0
2018-Jul-20 19:59N 35°53' W 005°33'0 0.0
2018-Jul-20 19:29N 35°53' W 005°33'0 0.0
2018-Jul-20 18:59N 35°53' W 005°33'11 0.4
2018-Jul-19 18:08N 36°01' W 005°26'310.7
2018-Jul-19 17:52N 36°04' W 005°24'5 0.1
2018-Jul-18 05:44N 36°08' W 005°25'0 0.1
2018-Jul-18 05:23N 36°08' W 005°25'0 0.1
2018-Jul-18 04:59N 36°08' W 005°25'0 0.1
2018-Jul-18 04:23N 36°08' W 005°25'0 0.1
2018-Jul-18 03:59N 36°08' W 005°25'0 0.0
2018-Jul-18 03:23N 36°08' W 005°25'0 0.1
2018-Jul-18 02:59N 36°08' W 005°25'0 0.1
2018-Jul-18 02:29N 36°08' W 005°25'0 0.0
2018-Jul-18 01:59N 36°08' W 005°25'0 0.0
2018-Jul-18 01:29N 36°08' W 005°25'0 0.1
2018-Jul-18 00:59N 36°08' W 005°25'0 0.0
2018-Jul-18 00:23N 36°08' W 005°25'0 0.1
2018-Jul-17 23:59N 36°08' W 005°25'0 0.0
2018-Jul-17 23:29N 36°08' W 005°25'0 0.2
2018-Jul-17 22:56N 36°08' W 005°25'0 0.0
2018-Jul-17 22:29N 36°08' W 005°25'0 0.1
2018-Jul-17 21:59N 36°08' W 005°25'0 0.0
2018-Jul-17 21:29N 36°08' W 005°25'0 0.3
2018-Jul-17 20:56N 36°08' W 005°25'0 0.1
2018-Jul-17 20:29N 36°08' W 005°25'0 0.0
2018-Jul-17 19:59N 36°08' W 005°25'0 0.0
2018-Jul-17 19:23N 36°08' W 005°25'0 0.0
2018-Jul-17 18:59N 36°08' W 005°25'0 0.0
2018-Jul-17 18:26N 36°08' W 005°25'0 0.1
2018-Jul-17 17:59N 36°08' W 005°25'0 0.0
2018-Jul-17 17:29N 36°08' W 005°25'0 0.1
2018-Jul-17 16:56N 36°08' W 005°25'0 0.2
2018-Jul-17 16:26N 36°08' W 005°25'0 0.2
2018-Jul-17 15:56N 36°08' W 005°25'0 0.2
2018-Jul-17 15:23N 36°08' W 005°25'0 0.0
2018-Jul-17 14:59N 36°08' W 005°25'0 0.0
2018-Jul-17 14:29N 36°08' W 005°25'0 0.1
2018-Jul-17 13:59N 36°08' W 005°25'0 0.0
2018-Jul-17 13:29N 36°08' W 005°25'0 0.1
2018-Jul-17 12:56N 36°08' W 005°25'0 0.1
2018-Jul-17 12:29N 36°08' W 005°25'0 0.0
2018-Jul-17 11:59N 36°08' W 005°25'0 0.0
2018-Jul-17 11:29N 36°08' W 005°25'0 0.0
2018-Jul-17 10:29N 36°08' W 005°25'0 0.1
2018-Jul-17 09:59N 36°08' W 005°25'0 0.1
2018-Jul-17 09:23N 36°08' W 005°25'0 0.2
2018-Jul-17 08:59N 36°08' W 005°25'0 0.3
2018-Jul-17 08:26N 36°08' W 005°25'0 0.0
2018-Jul-17 06:56N 36°08' W 005°25'0 0.0
2018-Jul-17 06:29N 36°08' W 005°25'0 0.1
2018-Jul-17 05:44N 36°08' W 005°25'0 0.4
2018-Jul-17 05:29N 36°08' W 005°24'0 0.1
2018-Jul-17 04:47N 36°08' W 005°25'0 0.1
2018-Jul-17 04:23N 36°08' W 005°25'0 0.1
2018-Jul-17 03:56N 36°08' W 005°25'0 0.1
2018-Jul-17 03:29N 36°08' W 005°25'0 0.1
2018-Jul-17 02:58N 36°08' W 005°25'0 0.1
2018-Jul-17 02:28N 36°08' W 005°25'0 0.0
2018-Jul-17 01:55N 36°08' W 005°25'0 0.0
2018-Jul-17 01:28N 36°08' W 005°25'0 0.2
2018-Jul-17 00:58N 36°08' W 005°25'0 0.1
2018-Jul-17 00:25N 36°08' W 005°25'0 0.0
2018-Jul-16 23:25N 36°08' W 005°25'0 0.0
2018-Jul-16 22:55N 36°08' W 005°25'0 0.0
2018-Jul-16 22:16N 36°08' W 005°25'0 0.2
2018-Jul-16 21:58N 36°08' W 005°24'0 0.1
2018-Jul-16 21:28N 36°08' W 005°24'0 0.1
2018-Jul-16 20:58N 36°08' W 005°25'0 0.0
2018-Jul-16 20:28N 36°08' W 005°25'0 0.0
2018-Jul-16 19:55N 36°08' W 005°25'0 0.0
2018-Jul-16 19:25N 36°08' W 005°25'0 0.0
2018-Jul-16 18:55N 36°08' W 005°25'0 0.0
2018-Jul-16 18:28N 36°08' W 005°25'0 0.0
2018-Jul-16 17:58N 36°08' W 005°25'0 0.0
2018-Jul-16 17:28N 36°08' W 005°25'0 0.0
2018-Jul-16 16:58N 36°08' W 005°25'0 0.2
2018-Jul-16 16:28N 36°08' W 005°25'0 0.2
2018-Jul-16 15:55N 36°08' W 005°24'0 0.1
2018-Jul-16 15:25N 36°08' W 005°24'0 0.1
2018-Jul-16 14:55N 36°08' W 005°25'0 0.0
2018-Jul-16 13:58N 36°08' W 005°25'0 0.0
2018-Jul-16 13:10N 36°08' W 005°25'0 0.0
2018-Jul-16 12:58N 36°08' W 005°25'0 0.0
2018-Jul-16 12:01N 36°08' W 005°25'0 0.0
2018-Jul-16 11:43N 36°08' W 005°25'0 0.1
2018-Jul-16 11:25N 36°08' W 005°25'0 0.0
2018-Jul-16 10:58N 36°08' W 005°25'0 0.1
2018-Jul-16 09:25N 36°08' W 005°24'0 0.1
2018-Jul-16 08:19N 36°08' W 005°25'0 0.1
2018-Jul-16 07:58N 36°08' W 005°25'0 0.1
2018-Jul-16 07:28N 36°08' W 005°25'0 0.0
2018-Jul-16 06:55N 36°08' W 005°24'0 0.1
2018-Jul-16 06:28N 36°08' W 005°25'0 0.1
2018-Jul-16 05:58N 36°08' W 005°25'0 0.0
2018-Jul-16 05:25N 36°08' W 005°25'0 0.2
2018-Jul-16 04:19N 36°08' W 005°24'0 0.1
2018-Jul-16 03:55N 36°08' W 005°24'0 0.1
2018-Jul-16 03:25N 36°08' W 005°24'0 0.1
2018-Jul-16 02:55N 36°08' W 005°24'0 0.2
2018-Jul-16 02:25N 36°08' W 005°25'0 0.1
2018-Jul-16 01:58N 36°08' W 005°25'0 0.0
2018-Jul-16 01:28N 36°08' W 005°25'0 0.0
2018-Jul-16 00:55N 36°08' W 005°25'0 0.1
2018-Jul-16 00:25N 36°08' W 005°25'0 0.1
2018-Jul-15 23:58N 36°08' W 005°24'0 0.1
2018-Jul-15 23:25N 36°08' W 005°25'0 0.0
2018-Jul-15 22:58N 36°08' W 005°25'0 0.0
2018-Jul-15 21:46N 36°08' W 005°24'0 0.0
2018-Jul-15 21:28N 36°08' W 005°24'0 0.1
2018-Jul-15 20:55N 36°08' W 005°24'0 0.0
2018-Jul-15 17:07N 36°08' W 005°24'0 0.2
2018-Jul-15 16:58N 36°08' W 005°24'0 0.2
2018-Jul-15 16:28N 36°08' W 005°25'0 0.1
2018-Jul-15 15:58N 36°08' W 005°25'0 0.1
2018-Jul-15 15:28N 36°08' W 005°25'0 0.1
2018-Jul-15 13:28N 36°08' W 005°24'0 0.1
2018-Jul-15 12:58N 36°08' W 005°24'0 0.0
2018-Jul-15 12:25N 36°08' W 005°24'0 0.0
2018-Jul-15 11:58N 36°08' W 005°24'0 0.0
2018-Jul-15 10:01N 36°08' W 005°24'0 0.0
2018-Jul-15 09:37N 36°08' W 005°24'0 0.1
2018-Jul-15 09:22N 36°08' W 005°24'0 0.0
2018-Jul-15 08:55N 36°08' W 005°24'0 0.1
2018-Jul-15 08:25N 36°08' W 005°25'0 0.1
2018-Jul-15 07:55N 36°08' W 005°25'0 0.3
2018-Jul-15 07:30N 36°08' W 005°25'1 2.5
2018-Jul-15 07:01N 36°07' W 005°24'3 6.2
2018-Jul-15 06:27N 36°05' W 005°21'3 6.7
2018-Jul-15 06:00N 36°04' W 005°17'3 6.8
2018-Jul-15 05:30N 36°01' W 005°20'4 7.8
2018-Jul-15 05:01N 35°58' W 005°23'611.8
2018-Jul-15 04:30N 35°56' W 005°30'1512.2
2018-Jul-15 03:15N 35°55' W 005°49'512.1
2018-Jul-15 02:49N 35°54' W 005°55'  

Dump ship's entire track history